Time;durP1;ratioP1;P1;durP2;ratioP2;P2;SDS_P1;SDS_P2;PMS_P1;PMS_P2;Temp;Humidity;BMP_temperature;BMP_pressure;BME280_temperature;BME280_humidity;BME280_pressure;Samples;Min_cycle;Max_cycle;Signal;HPM_P1;HPM_P2
2022/10/27 00:01:25;;;;;;;16.87;11.57;;;13.20;1.00;;;;;;5088332;28;20182;-59
2022/10/27 00:03:51;;;;;;;16.53;11.30;;;13.20;1.00;;;;;;5087100;28;21007;-61
2022/10/27 00:06:17;;;;;;;14.20;9.77;;;13.20;1.00;;;;;;5085160;28;20186;-61
2022/10/27 00:08:43;;;;;;;15.80;11.17;;;13.20;1.00;;;;;;5088096;28;21108;-61
2022/10/27 00:11:08;;;;;;;18.27;13.00;;;13.10;1.00;;;;;;5087527;28;20523;-61
2022/10/27 00:13:35;;;;;;;16.83;12.10;;;13.20;1.00;;;;;;5085277;28;20189;-60
2022/10/27 00:16:07;;;;;;;15.87;10.93;;;13.10;1.00;;;;;;5082865;28;20201;-60
2022/10/27 00:18:33;;;;;;;14.70;9.97;;;13.10;1.00;;;;;;5082269;28;20453;-61
2022/10/27 00:20:59;;;;;;;12.97;10.27;;;;;;;;;;5081319;28;20470;-61
2022/10/27 00:23:24;;;;;;;16.63;12.07;;;13.10;1.00;;;;;;5080570;28;20480;-61
2022/10/27 00:25:54;;;;;;;20.17;10.33;;;13.20;1.00;;;;;;5080477;28;20427;-59
2022/10/27 00:28:21;;;;;;;16.53;11.50;;;13.30;1.00;;;;;;5087282;28;20228;-60
2022/10/27 00:30:46;;;;;;;18.03;11.37;;;13.30;1.00;;;;;;5089742;28;20487;-60
2022/10/27 00:33:12;;;;;;;14.17;11.37;;;13.40;1.00;;;;;;5085138;28;20884;-60
2022/10/27 00:35:37;;;;;;;15.50;11.27;;;13.50;1.00;;;;;;5084390;28;20635;-61
2022/10/27 00:38:03;;;;;;;15.20;10.67;;;13.60;1.00;;;;;;5087431;28;20216;-63
2022/10/27 00:40:34;;;;;;;14.63;10.57;;;13.60;1.00;;;;;;5089100;28;20188;-60
2022/10/27 00:42:59;;;;;;;12.03;10.00;;;13.70;1.00;;;;;;5083852;28;20226;-61
2022/10/27 00:45:25;;;;;;;17.83;11.90;;;13.70;1.00;;;;;;5081072;28;20451;-60
2022/10/27 00:47:51;;;;;;;15.87;11.47;;;13.80;1.00;;;;;;5086110;28;20181;-60
2022/10/27 00:50:22;;;;;;;14.10;10.10;;;13.90;1.00;;;;;;5087256;28;20192;-60
2022/10/27 00:52:55;;;;;;;17.30;11.70;;;13.80;1.00;;;;;;5086166;28;20670;-61
2022/10/27 00:55:25;;;;;;;12.00;9.87;;;13.80;1.00;;;;;;5087172;28;20426;-60
2022/10/27 00:57:55;;;;;;;19.27;11.27;;;13.90;1.00;;;;;;5082838;28;21931;-59
2022/10/27 01:00:20;;;;;;;13.77;9.73;;;13.80;1.00;;;;;;5080219;28;20980;-59
2022/10/27 01:02:47;;;;;;;13.80;9.40;;;13.80;1.00;;;;;;5080475;28;20540;-61
2022/10/27 01:05:21;;;;;;;13.47;10.27;;;13.70;1.00;;;;;;5079415;28;20269;-61
2022/10/27 01:07:49;;;;;;;17.13;10.67;;;13.80;1.00;;;;;;5086287;28;20421;-59
2022/10/27 01:10:15;;;;;;;14.77;10.67;;;13.80;1.00;;;;;;5083118;28;20419;-60
2022/10/27 01:12:41;;;;;;;16.07;10.50;;;13.80;1.00;;;;;;5084066;28;20450;-60
2022/10/27 01:15:09;;;;;;;12.87;9.80;;;13.80;1.00;;;;;;5082792;28;20441;-61
2022/10/27 01:17:56;;;;;;;12.77;10.77;;;13.80;1.00;;;;;;5081693;28;20449;-60
2022/10/27 01:20:37;;;;;;;23.03;13.63;;;13.80;1.00;;;;;;5084872;28;20443;-60
2022/10/27 01:23:10;;;;;;;24.63;15.50;;;13.80;1.00;;;;;;5084678;28;20446;-60
2022/10/27 01:26:03;;;;;;;17.37;11.30;;;13.70;1.00;;;;;;5082602;28;20439;-59
2022/10/27 01:29:04;;;;;;;12.77;10.53;;;13.60;1.00;;;;;;5086857;28;20438;-62
2022/10/27 01:31:34;;;;;;;11.60;9.23;;;13.50;1.00;;;;;;5079121;28;20436;-59
2022/10/27 01:34:11;;;;;;;15.00;11.37;;;13.50;1.00;;;;;;5084158;28;20423;-60
2022/10/27 01:36:42;;;;;;;17.73;10.60;;;13.50;1.00;;;;;;5087301;28;20479;-58
2022/10/27 01:39:29;;;;;;;13.73;10.43;;;13.50;1.00;;;;;;5082729;28;20463;-60
2022/10/27 01:42:12;;;;;;;15.47;10.90;;;13.30;1.00;;;;;;5086104;28;20422;-60
2022/10/27 01:44:44;;;;;;;14.50;11.27;;;13.30;1.00;;;;;;5082781;28;20489;-60
2022/10/27 01:47:11;;;;;;;16.50;10.17;;;13.30;1.00;;;;;;5084648;28;20921;-59
2022/10/27 01:49:41;;;;;;;20.37;11.30;;;13.20;1.00;;;;;;5086656;28;20524;-61
2022/10/27 01:52:26;;;;;;;15.93;10.97;;;13.20;1.00;;;;;;5087363;28;20531;-59
2022/10/27 01:54:54;;;;;;;15.37;10.87;;;13.10;1.00;;;;;;5084710;28;20416;-60
2022/10/27 01:57:31;;;;;;;15.90;10.20;;;13.10;1.00;;;;;;5081237;28;20517;-59
2022/10/27 02:00:03;;;;;;;14.47;10.53;;;13.00;1.00;;;;;;5087081;28;20585;-58
2022/10/27 02:02:34;;;;;;;13.73;10.43;;;13.10;1.00;;;;;;5081910;28;21169;-60
2022/10/27 02:05:17;;;;;;;14.80;10.87;;;13.00;1.00;;;;;;5087395;28;20482;-59
2022/10/27 02:07:45;;;;;;;14.07;10.73;;;13.00;1.00;;;;;;5082673;28;20499;-60
2022/10/27 02:10:23;;;;;;;16.90;10.47;;;12.90;1.00;;;;;;5082838;28;20421;-60
2022/10/27 02:12:49;;;;;;;14.80;11.00;;;13.00;1.00;;;;;;5080771;28;20418;-60
2022/10/27 02:15:41;;;;;;;15.67;11.97;;;13.00;1.00;;;;;;5081607;28;20448;-59
2022/10/27 02:18:17;;;;;;;13.10;10.73;;;13.00;1.00;;;;;;5084757;28;20434;-61
2022/10/27 02:20:49;;;;;;;19.00;11.70;;;13.00;1.00;;;;;;5084276;28;20441;-60
2022/10/27 02:23:17;;;;;;;12.97;10.33;;;13.00;1.00;;;;;;5084484;28;20470;-60
2022/10/27 02:25:54;;;;;;;16.70;10.60;;;12.90;1.00;;;;;;5087915;28;20846;-61
2022/10/27 02:28:28;;;;;;;13.93;10.80;;;12.90;1.00;;;;;;5089057;28;20444;-60
2022/10/27 02:30:57;;;;;;;14.57;11.47;;;12.90;1.00;;;;;;5087228;28;20420;-60
2022/10/27 02:33:23;;;;;;;15.00;11.10;;;12.90;1.00;;;;;;5086960;28;20842;-62
2022/10/27 02:35:49;;;;;;;12.90;10.17;;;12.90;1.00;;;;;;5087328;28;20423;-60
2022/10/27 02:38:14;;;;;;;16.67;10.00;;;12.90;1.00;;;;;;5087975;28;20447;-61
2022/10/27 02:40:41;;;;;;;11.97;10.77;;;12.80;1.00;;;;;;5087031;28;20238;-60
2022/10/27 02:43:07;;;;;;;14.30;10.27;;;12.70;1.00;;;;;;5089222;28;20240;-61
2022/10/27 02:45:32;;;;;;;18.53;11.50;;;12.70;1.00;;;;;;5090486;28;20476;-60
2022/10/27 02:47:58;;;;;;;14.17;10.83;;;12.70;1.00;;;;;;5089775;28;20183;-60
2022/10/27 02:50:24;;;;;;;12.70;10.03;;;;;;;;;;5090524;28;20281;-61
2022/10/27 02:52:49;;;;;;;18.27;11.03;;;12.70;1.00;;;;;;5090262;28;20245;-59
2022/10/27 02:55:15;;;;;;;15.73;11.10;;;12.70;1.00;;;;;;5090581;28;20454;-61
2022/10/27 02:57:40;;;;;;;17.23;11.53;;;12.70;1.00;;;;;;5087419;28;20286;-60
2022/10/27 03:00:07;;;;;;;20.33;11.23;;;12.60;1.00;;;;;;5085994;28;21105;-61
2022/10/27 03:02:32;;;;;;;17.20;11.40;;;12.60;1.00;;;;;;5089766;28;20214;-59
2022/10/27 03:04:58;;;;;;;17.03;12.13;;;12.60;3.30;;;;;;5086662;28;20937;-60
2022/10/27 03:07:23;;;;;;;16.90;11.10;;;12.70;7.00;;;;;;5087076;28;20205;-60
2022/10/27 03:09:49;;;;;;;20.23;12.60;;;12.70;6.40;;;;;;5088050;28;20194;-60
2022/10/27 03:12:15;;;;;;;19.50;12.33;;;12.60;8.70;;;;;;5088580;28;20190;-59
2022/10/27 03:14:40;;;;;;;15.07;11.43;;;12.60;7.40;;;;;;5085924;28;20193;-60
2022/10/27 03:17:06;;;;;;;15.13;10.47;;;12.60;8.60;;;;;;5084940;28;20621;-60
2022/10/27 03:19:31;;;;;;;12.30;9.93;;;12.60;9.30;;;;;;5087199;28;20197;-61
2022/10/27 03:21:57;;;;;;;16.27;11.50;;;12.50;12.10;;;;;;5087521;28;20201;-60
2022/10/27 03:24:22;;;;;;;23.57;11.80;;;12.50;11.20;;;;;;5089089;28;20189;-62
2022/10/27 03:26:48;;;;;;;16.07;12.03;;;12.50;13.80;;;;;;5088233;28;20197;-60
2022/10/27 03:29:14;;;;;;;18.00;12.10;;;;;;;;;;5087697;28;20189;-60
2022/10/27 03:31:39;;;;;;;19.90;12.00;;;12.50;19.70;;;;;;5087619;28;20464;-61
2022/10/27 03:34:05;;;;;;;17.33;11.87;;;12.50;17.80;;;;;;5085889;28;20472;-61
2022/10/27 03:36:31;;;;;;;14.13;10.57;;;12.50;18.30;;;;;;5082707;28;20189;-60
2022/10/27 03:38:56;;;;;;;13.20;10.73;;;12.50;17.60;;;;;;5087364;28;20189;-60
2022/10/27 03:41:22;;;;;;;17.90;11.30;;;12.50;24.70;;;;;;5088510;28;20651;-60
2022/10/27 03:43:47;;;;;;;14.40;11.10;;;12.50;21.50;;;;;;5085238;28;20540;-58
2022/10/27 03:46:13;;;;;;;15.73;10.70;;;12.60;23.20;;;;;;5089833;28;20195;-60
2022/10/27 03:48:38;;;;;;;16.60;11.17;;;12.50;21.10;;;;;;5089588;28;20195;-60
2022/10/27 03:51:04;;;;;;;32.03;12.10;;;12.50;23.90;;;;;;5083951;28;20197;-61
2022/10/27 03:53:29;;;;;;;16.77;11.30;;;12.40;22.60;;;;;;5089644;28;20235;-60
2022/10/27 03:55:55;;;;;;;17.43;12.03;;;12.50;24.80;;;;;;5089623;28;20243;-58
2022/10/27 03:58:20;;;;;;;17.60;11.67;;;12.40;30.60;;;;;;5088860;28;20187;-60
2022/10/27 04:00:46;;;;;;;16.90;10.53;;;12.40;32.70;;;;;;5086746;28;20229;-62
2022/10/27 04:03:12;;;;;;;18.73;11.53;;;12.50;36.10;;;;;;5087207;28;20221;-61
2022/10/27 04:05:38;;;;;;;16.07;11.57;;;12.50;33.70;;;;;;5087448;28;20184;-61
2022/10/27 04:08:04;;;;;;;17.53;12.07;;;12.50;35.20;;;;;;5086310;28;20424;-60
2022/10/27 04:10:30;;;;;;;13.63;11.70;;;12.60;31.30;;;;;;5085779;28;20641;-61
2022/10/27 04:12:56;;;;;;;15.33;10.50;;;12.70;27.40;;;;;;5084585;28;20537;-61
2022/10/27 04:15:24;;;;;;;21.13;12.93;;;12.60;21.50;;;;;;5089457;28;20220;-62
2022/10/27 04:17:58;;;;;;;20.07;12.50;;;12.60;17.90;;;;;;5089529;28;20459;-61
2022/10/27 04:20:25;;;;;;;16.37;12.63;;;12.70;17.00;;;;;;5090650;28;20509;-60
2022/10/27 04:22:50;;;;;;;19.33;12.03;;;12.60;14.10;;;;;;5089109;28;20795;-60
2022/10/27 04:25:16;;;;;;;17.13;12.10;;;12.60;16.50;;;;;;5089292;28;20418;-60
2022/10/27 04:27:42;;;;;;;15.90;11.43;;;12.50;17.80;;;;;;5091323;28;20646;-60
2022/10/27 04:30:07;;;;;;;20.10;11.67;;;12.50;18.50;;;;;;5087680;28;20207;-59
2022/10/27 04:32:33;;;;;;;17.00;10.80;;;12.40;18.20;;;;;;5087978;28;20280;-59
2022/10/27 04:34:59;;;;;;;16.47;11.30;;;12.40;20.90;;;;;;5086893;28;20501;-60
2022/10/27 04:37:25;;;;;;;19.07;11.40;;;12.30;22.60;;;;;;5089107;28;20186;-60
2022/10/27 04:39:51;;;;;;;14.53;11.80;;;;;;;;;;5090778;28;20273;-60
2022/10/27 04:42:16;;;;;;;20.07;12.33;;;12.30;30.00;;;;;;5087708;28;20604;-60
2022/10/27 04:44:42;;;;;;;15.10;11.60;;;12.30;28.50;;;;;;5086982;28;20447;-59
2022/10/27 04:47:07;;;;;;;19.20;12.10;;;12.30;31.80;;;;;;5086963;28;20192;-61
2022/10/27 04:49:33;;;;;;;19.03;13.20;;;12.30;34.30;;;;;;5087468;28;20182;-61
2022/10/27 04:51:58;;;;;;;19.07;13.80;;;12.30;34.70;;;;;;5090082;28;20300;-59
2022/10/27 04:54:24;;;;;;;18.00;12.70;;;12.30;37.90;;;;;;5086102;28;20197;-60
2022/10/27 04:56:49;;;;;;;19.57;13.70;;;12.20;38.00;;;;;;5089231;28;20214;-60
2022/10/27 04:59:15;;;;;;;20.10;14.10;;;12.30;39.50;;;;;;5089506;28;20197;-58
2022/10/27 05:01:41;;;;;;;25.00;12.90;;;12.30;39.80;;;;;;5091070;28;20255;-60
2022/10/27 05:04:06;;;;;;;19.10;13.47;;;12.20;41.50;;;;;;5083608;28;20206;-62
2022/10/27 05:06:32;;;;;;;18.07;12.63;;;13.70;49.60;;;;;;5090428;28;20194;-61
2022/10/27 05:08:57;;;;;;;18.67;14.03;;;12.20;56.90;;;;;;5092101;28;20236;-61
2022/10/27 05:11:23;;;;;;;18.93;13.93;;;;;;;;;;5090495;28;20188;-61
2022/10/27 05:13:50;;;;;;;15.63;12.67;;;12.20;68.70;;;;;;5091803;28;20188;-60
2022/10/27 05:16:16;;;;;;;26.80;13.83;;;12.20;69.80;;;;;;5091944;28;20501;-61
2022/10/27 05:18:42;;;;;;;20.80;12.53;;;12.20;71.20;;;;;;5089587;28;20443;-59
2022/10/27 05:21:08;;;;;;;18.63;12.60;;;12.20;70.10;;;;;;5089149;28;20482;-59
2022/10/27 05:23:33;;;;;;;21.07;13.17;;;12.10;78.00;;;;;;5090483;28;20230;-59
2022/10/27 05:25:59;;;;;;;22.70;12.27;;;12.10;87.90;;;;;;5088298;28;20284;-61
2022/10/27 05:28:24;;;;;;;17.57;13.27;;;12.10;94.60;;;;;;5091075;28;20192;-60
2022/10/27 05:30:56;;;;;;;21.20;13.60;;;12.10;99.90;;;;;;5088375;28;20200;-59
2022/10/27 05:33:22;;;;;;;19.30;12.67;;;12.10;99.90;;;;;;5091635;28;20275;-60
2022/10/27 05:35:48;;;;;;;17.17;12.77;;;12.10;99.90;;;;;;5090568;28;20951;-61
2022/10/27 05:38:14;;;;;;;19.47;12.87;;;12.00;99.90;;;;;;5090504;28;20190;-60
2022/10/27 05:40:39;;;;;;;17.80;13.30;;;12.00;99.90;;;;;;5090588;28;20434;-61
2022/10/27 05:43:05;;;;;;;18.33;14.20;;;12.00;99.90;;;;;;5090502;28;20287;-60
2022/10/27 05:45:30;;;;;;;21.83;15.90;;;12.00;99.90;;;;;;5089978;28;20192;-61
2022/10/27 05:47:58;;;;;;;18.03;12.80;;;12.10;99.90;;;;;;5091280;28;20200;-61
2022/10/27 05:50:24;;;;;;;21.93;13.37;;;12.10;99.90;;;;;;5091302;28;20199;-59
2022/10/27 05:52:50;;;;;;;21.23;12.30;;;12.00;99.90;;;;;;5088339;28;20574;-61
2022/10/27 05:55:16;;;;;;;22.33;13.07;;;;;;;;;;5090491;28;20499;-59
2022/10/27 05:57:41;;;;;;;19.93;13.07;;;12.00;99.90;;;;;;5088503;28;20182;-59
2022/10/27 06:00:07;;;;;;;22.97;13.30;;;12.00;99.90;;;;;;5094196;28;20538;-60
2022/10/27 06:02:33;;;;;;;25.70;13.17;;;12.00;99.90;;;;;;5095603;28;20205;-60
2022/10/27 06:04:58;;;;;;;18.67;11.90;;;12.10;99.90;;;;;;5094961;28;20450;-61
2022/10/27 06:07:24;;;;;;;19.37;11.30;;;12.00;99.90;;;;;;5095364;28;20185;-59
2022/10/27 06:09:50;;;;;;;14.70;11.80;;;12.00;99.90;;;;;;5096641;28;20204;-60
2022/10/27 06:12:15;;;;;;;22.17;13.17;;;12.00;99.90;;;;;;5095320;28;20646;-60
2022/10/27 06:14:41;;;;;;;16.77;11.83;;;12.10;99.90;;;;;;5095773;28;20217;-61
2022/10/27 06:17:06;;;;;;;18.93;13.50;;;12.10;99.90;;;;;;5096228;28;20233;-60
2022/10/27 06:19:32;;;;;;;18.43;12.63;;;12.20;99.90;;;;;;5095722;28;20498;-62
2022/10/27 06:21:57;;;;;;;19.37;13.80;;;12.20;99.90;;;;;;5092200;28;20622;-59
2022/10/27 06:24:23;;;;;;;20.80;13.73;;;12.20;99.90;;;;;;5094787;28;20198;-62
2022/10/27 06:26:49;;;;;;;20.80;12.80;;;;;;;;;;5096160;28;20233;-61
2022/10/27 06:29:14;;;;;;;23.63;13.33;;;12.10;99.90;;;;;;5095478;28;20196;-61
2022/10/27 06:31:41;;;;;;;19.80;14.47;;;12.10;99.90;;;;;;5096035;28;20439;-61
2022/10/27 06:34:07;;;;;;;24.70;13.97;;;12.20;99.90;;;;;;5095618;28;20179;-60
2022/10/27 06:36:32;;;;;;;27.90;15.20;;;12.10;99.90;;;;;;5095666;28;20454;-60
2022/10/27 06:38:58;;;;;;;22.90;13.40;;;12.20;99.90;;;;;;5095647;28;20514;-61
2022/10/27 06:41:23;;;;;;;22.63;14.57;;;12.20;99.90;;;;;;5094275;28;20283;-62
2022/10/27 06:43:49;;;;;;;18.40;13.83;;;12.20;99.90;;;;;;5093529;28;20289;-61
2022/10/27 06:46:14;;;;;;;18.67;14.20;;;12.20;99.90;;;;;;5089913;28;20591;-60
2022/10/27 06:48:41;;;;;;;21.60;14.77;;;12.30;99.90;;;;;;5093153;28;20184;-62
2022/10/27 06:51:07;;;;;;;20.60;13.90;;;13.80;99.90;;;;;;5094209;28;20190;-62
2022/10/27 06:53:32;;;;;;;19.73;13.67;;;12.30;99.90;;;;;;5094443;28;20868;-60
2022/10/27 06:55:58;;;;;;;22.70;14.93;;;12.40;93.50;;;;;;5089498;28;20535;-61
2022/10/27 06:58:24;;;;;;;18.90;13.60;;;12.50;84.50;;;;;;5092451;28;20551;-61
2022/10/27 07:00:49;;;;;;;28.70;12.40;;;12.50;67.80;;;;;;5093911;28;20650;-61
2022/10/27 07:03:15;;;;;;;23.60;14.90;;;12.50;66.50;;;;;;5094872;28;20782;-63
2022/10/27 07:05:41;;;;;;;26.87;15.10;;;12.60;58.20;;;;;;5095501;28;20173;-61
2022/10/27 07:08:06;;;;;;;18.30;13.87;;;12.60;54.80;;;;;;5095237;28;20432;-61
2022/10/27 07:10:32;;;;;;;27.90;13.40;;;12.50;56.80;;;;;;5094370;28;20179;-61
2022/10/27 07:13:00;;;;;;;18.63;14.20;;;16.00;66.10;;;;;;5094546;28;20198;-62
2022/10/27 07:15:35;;;;;;;15.23;11.80;;;12.70;61.80;;;;;;5093102;28;20671;-62
2022/10/27 07:18:06;;;;;;;20.60;12.90;;;12.80;53.20;;;;;;5091611;28;20464;-62
2022/10/27 07:20:34;;;;;;;14.10;12.17;;;12.90;36.40;;;;;;5094354;28;20500;-62
2022/10/27 07:23:00;;;;;;;18.97;13.50;;;13.00;38.90;;;;;;5094071;28;20468;-62
2022/10/27 07:25:27;;;;;;;18.77;14.30;;;13.00;37.60;;;;;;5094308;28;20924;-63
2022/10/27 07:27:55;;;;;;;22.50;14.63;;;13.10;30.60;;;;;;5092846;28;20427;-62
2022/10/27 07:30:22;;;;;;;21.07;14.00;;;13.20;30.40;;;;;;5085860;28;20445;-61
2022/10/27 07:32:48;;;;;;;20.47;13.50;;;13.30;11.30;;;;;;5092426;28;20423;-63
2022/10/27 07:35:14;;;;;;;23.03;15.43;;;13.50;1.00;;;;;;5091242;28;20448;-62
2022/10/27 07:37:45;;;;;;;17.73;15.00;;;13.50;1.00;;;;;;5093482;28;20454;-62
2022/10/27 07:40:12;;;;;;;21.63;15.50;;;13.60;1.00;;;;;;5091920;28;20459;-60
2022/10/27 07:42:52;;;;;;;19.20;14.97;;;13.70;1.00;;;;;;5093885;28;20570;-62
2022/10/27 07:45:20;;;;;;;22.33;14.80;;;13.80;1.00;;;;;;5088753;28;20556;-61
2022/10/27 07:47:47;;;;;;;21.60;14.20;;;13.80;1.00;;;;;;5092683;28;20536;-62
2022/10/27 07:50:13;;;;;;;20.23;15.23;;;14.10;1.00;;;;;;5093031;28;20530;-63
2022/10/27 07:52:42;;;;;;;20.37;14.63;;;14.20;1.00;;;;;;5091316;28;20446;-63
2022/10/27 07:55:09;;;;;;;16.83;13.53;;;14.30;1.00;;;;;;5093224;28;20934;-63
2022/10/27 07:57:35;;;;;;;17.57;13.67;;;14.40;1.00;;;;;;5092524;28;20818;-62
2022/10/27 08:00:01;;;;;;;32.93;14.00;;;14.30;1.00;;;;;;5093131;28;20489;-63
2022/10/27 08:02:26;;;;;;;20.73;12.57;;;14.40;1.00;;;;;;5088777;28;20213;-62
2022/10/27 08:04:53;;;;;;;16.07;12.47;;;14.60;1.00;;;;;;5091693;28;20855;-62
2022/10/27 08:07:19;;;;;;;21.37;13.40;;;14.60;1.00;;;;;;5087750;28;20219;-62
2022/10/27 08:09:45;;;;;;;14.17;10.97;;;14.70;1.00;;;;;;5089967;28;20440;-63
2022/10/27 08:12:10;;;;;;;19.17;12.87;;;14.80;1.00;;;;;;5091984;28;20178;-62
2022/10/27 08:14:36;;;;;;;20.13;11.97;;;14.80;1.00;;;;;;5090034;28;20265;-63
2022/10/27 08:17:02;;;;;;;14.00;11.33;;;;;;;;;;5092166;28;20265;-63
2022/10/27 08:19:27;;;;;;;14.07;12.57;;;15.10;1.00;;;;;;5091823;28;20189;-62
2022/10/27 08:21:53;;;;;;;15.50;11.73;;;15.20;1.00;;;;;;5089963;28;20451;-64
2022/10/27 08:24:18;;;;;;;15.93;11.07;;;15.70;1.00;;;;;;5090884;28;20213;-63
2022/10/27 08:26:44;;;;;;;14.03;10.90;;;;;;;;;;5091135;28;20210;-65
2022/10/27 08:29:10;;;;;;;15.20;11.27;;;16.60;1.00;;;;;;5090240;28;20209;-63
2022/10/27 08:31:35;;;;;;;12.10;10.80;;;16.90;1.00;;;;;;5090913;28;20786;-63
2022/10/27 08:34:01;;;;;;;12.67;10.40;;;17.00;1.00;;;;;;5091683;28;20204;-63
2022/10/27 08:36:26;;;;;;;16.47;10.77;;;17.00;1.00;;;;;;5091462;28;20202;-64
2022/10/27 08:38:52;;;;;;;12.17;10.73;;;17.10;1.00;;;;;;5091029;28;20275;-64
2022/10/27 08:41:39;;;;;;;11.27;10.17;;;17.00;1.00;;;;;;5091226;28;20181;-63
2022/10/27 08:44:16;;;;;;;11.83;10.47;;;16.80;1.00;;;;;;5089476;28;20284;-62
2022/10/27 08:46:56;;;;;;;12.33;9.90;;;16.80;1.00;;;;;;5090043;28;20925;-64
2022/10/27 08:49:32;;;;;;;16.00;11.23;;;16.80;1.00;;;;;;5089355;28;20432;-62
2022/10/27 08:52:20;;;;;;;13.10;10.03;;;16.80;1.00;;;;;;5090201;28;20440;-63
2022/10/27 08:54:51;;;;;;;10.60;9.50;;;16.80;1.00;;;;;;5090440;28;20453;-62
2022/10/27 08:57:26;;;;;;;14.20;10.07;;;16.90;1.00;;;;;;5089512;28;20422;-64
2022/10/27 08:59:54;;;;;;;13.77;9.83;;;17.00;1.00;;;;;;5089432;28;20459;-63
2022/10/27 09:02:25;;;;;;;12.77;9.97;;;17.00;1.00;;;;;;5090278;28;20441;-62
2022/10/27 09:05:31;;;;;;;12.97;8.80;;;17.20;1.00;;;;;;5090024;28;20473;-63
2022/10/27 09:08:17;;;;;;;12.47;11.07;;;17.40;1.00;;;;;;5089729;28;20481;-64
2022/10/27 09:11:08;;;;;;;11.83;9.73;;;17.60;1.00;;;;;;5089395;28;20417;-63
2022/10/27 09:13:39;;;;;;;10.00;9.00;;;17.70;1.00;;;;;;5090497;28;21073;-64
2022/10/27 09:16:12;;;;;;;12.07;9.20;;;18.00;1.00;;;;;;5090473;28;20435;-63
2022/10/27 09:18:48;;;;;;;11.70;9.27;;;18.80;1.00;;;;;;5089991;28;20479;-64
2022/10/27 09:21:19;;;;;;;8.87;7.97;;;19.90;1.00;;;;;;5088037;28;20856;-63
2022/10/27 09:24:04;;;;;;;14.43;8.70;;;20.20;1.00;;;;;;5088586;28;20434;-63
2022/10/27 09:26:31;;;;;;;9.67;8.43;;;20.20;1.00;;;;;;5089784;28;20967;-63
2022/10/27 09:29:00;;;;;;;12.60;9.07;;;;;;;;;;5089875;28;21104;-63
2022/10/27 09:31:35;;;;;;;9.53;8.40;;;19.90;1.00;;;;;;5090638;28;20426;-64
2022/10/27 09:34:13;;;;;;;10.87;8.60;;;19.60;1.00;;;;;;5089398;28;20778;-63
2022/10/27 09:36:39;;;;;;;12.33;10.13;;;;;;;;;;5089317;28;20451;-64
2022/10/27 09:39:05;;;;;;;13.23;9.40;;;;;;;;;;5090398;28;20418;-63
2022/10/27 09:41:31;;;;;;;9.77;8.77;;;19.30;1.00;;;;;;5090503;28;20955;-64
2022/10/27 09:43:59;;;;;;;9.67;8.10;;;19.30;1.00;;;;;;5090581;28;20434;-63
2022/10/27 09:46:28;;;;;;;11.30;8.17;;;19.30;1.00;;;;;;5090411;28;20471;-65
2022/10/27 09:48:59;;;;;;;11.30;8.17;;;19.30;1.00;;;;;;5089139;28;20527;-62
2022/10/27 09:51:45;;;;;;;10.47;8.60;;;19.40;1.00;;;;;;5090299;28;20514;-63
2022/10/27 09:54:38;;;;;;;8.40;7.57;;;19.60;1.00;;;;;;5090074;28;20453;-63
2022/10/27 09:57:18;;;;;;;10.77;7.80;;;19.60;1.00;;;;;;5091024;28;20813;-63
2022/10/27 10:00:00;;;;;;;11.17;8.13;;;19.80;1.00;;;;;;5088919;28;20446;-64
2022/10/27 10:02:35;;;;;;;10.70;9.60;;;19.90;1.00;;;;;;5089050;28;20949;-64
2022/10/27 10:05:18;;;;;;;10.43;7.77;;;20.00;1.00;;;;;;5089117;28;20926;-62
2022/10/27 10:07:45;;;;;;;12.40;8.27;;;20.20;1.00;;;;;;5090641;28;20493;-62
2022/10/27 10:10:28;;;;;;;11.03;8.17;;;18.20;1.00;;;;;;5089940;28;20484;-62
2022/10/27 10:13:03;;;;;;;12.00;8.10;;;20.30;1.00;;;;;;5089494;28;20439;-62
2022/10/27 10:15:31;;;;;;;14.00;7.60;;;20.40;1.00;;;;;;5087826;28;20428;-61
2022/10/27 10:18:01;;;;;;;8.40;6.90;;;20.40;1.00;;;;;;5090126;28;20425;-62
2022/10/27 10:20:34;;;;;;;12.73;8.00;;;20.50;1.00;;;;;;5090871;28;20441;-62
2022/10/27 10:23:03;;;;;;;9.13;8.00;;;20.60;1.00;;;;;;5090470;28;20546;-63
2022/10/27 10:25:33;;;;;;;8.43;6.70;;;20.70;1.00;;;;;;5090751;28;20451;-62
2022/10/27 10:28:05;;;;;;;9.40;7.30;;;20.80;1.00;;;;;;5090558;28;20517;-63
2022/10/27 10:30:35;;;;;;;9.97;7.00;;;20.90;1.00;;;;;;5090625;28;20443;-62
2022/10/27 10:33:03;;;;;;;8.10;7.03;;;20.90;1.00;;;;;;5090537;28;20435;-63
2022/10/27 10:35:41;;;;;;;9.30;7.50;;;20.90;1.00;;;;;;5089635;28;20422;-62
2022/10/27 10:38:25;;;;;;;8.40;6.33;;;20.80;1.00;;;;;;5089746;28;20437;-63
2022/10/27 10:41:21;;;;;;;10.20;7.83;;;21.00;1.00;;;;;;5088629;28;20410;-61
2022/10/27 10:44:06;;;;;;;9.27;7.47;;;21.10;1.00;;;;;;5085864;28;20467;-62
2022/10/27 10:46:33;;;;;;;6.90;6.20;;;21.10;1.00;;;;;;5090704;28;20429;-61
2022/10/27 10:48:59;;;;;;;6.67;5.97;;;21.20;1.00;;;;;;5094876;28;20446;-64
2022/10/27 10:51:35;;;;;;;9.27;7.40;;;21.20;1.00;;;;;;5093645;28;20824;-62
2022/10/27 10:54:04;;;;;;;11.00;6.50;;;21.20;1.00;;;;;;5092999;28;20457;-62
2022/10/27 10:56:35;;;;;;;6.97;6.20;;;21.40;1.00;;;;;;5094887;28;20444;-63
2022/10/27 10:59:09;;;;;;;10.63;6.67;;;21.60;1.00;;;;;;5089730;28;20444;-62
2022/10/27 11:01:50;;;;;;;9.27;5.93;;;22.00;1.00;;;;;;5094301;28;20514;-63
2022/10/27 11:04:22;;;;;;;7.60;6.27;;;22.10;1.00;;;;;;5094621;28;20810;-63
2022/10/27 11:07:24;;;;;;;13.53;6.43;;;22.20;1.00;;;;;;5093646;28;20972;-62
2022/10/27 11:10:11;;;;;;;9.37;6.30;;;22.50;1.00;;;;;;5094043;28;20510;-61
2022/10/27 11:12:41;;;;;;;8.13;5.80;;;22.40;1.00;;;;;;5092146;28;20475;-61
2022/10/27 11:15:31;;;;;;;9.83;5.43;;;22.40;1.00;;;;;;5092510;28;20443;-62
2022/10/27 11:18:20;;;;;;;8.23;5.80;;;22.50;1.00;;;;;;5090527;28;20473;-62
2022/10/27 11:20:49;;;;;;;10.03;5.70;;;22.50;1.00;;;;;;5094013;28;20410;-61
2022/10/27 11:23:27;;;;;;;6.47;5.67;;;22.60;1.00;;;;;;5094216;28;20471;-61
2022/10/27 11:25:55;;;;;;;8.37;4.60;;;22.60;1.00;;;;;;5094020;28;20493;-63
2022/10/27 11:28:31;;;;;;;5.20;4.03;;;22.50;1.00;;;;;;5093949;28;20437;-62
2022/10/27 11:31:17;;;;;;;6.13;4.40;;;22.30;1.00;;;;;;5093230;28;20442;-62
2022/10/27 11:33:51;;;;;;;6.20;5.47;;;22.40;1.00;;;;;;5093582;28;20415;-62
2022/10/27 11:36:49;;;;;;;5.97;4.20;;;22.40;1.00;;;;;;5092453;28;20813;-61
2022/10/27 11:39:28;;;;;;;7.23;5.20;;;22.40;1.00;;;;;;5091561;28;20444;-61
2022/10/27 11:42:39;;;;;;;6.33;3.93;;;22.40;1.00;;;;;;5092132;28;20429;-61
2022/10/27 11:45:33;;;;;;;8.43;4.17;;;22.40;1.00;;;;;;5067859;28;20922;-62
2022/10/27 11:48:06;;;;;;;4.23;3.73;;;22.60;1.00;;;;;;5093230;28;20432;-62
2022/10/27 11:50:46;;;;;;;4.50;4.10;;;22.70;1.00;;;;;;5093857;28;20446;-63
2022/10/27 11:53:12;;;;;;;7.80;4.80;;;22.80;1.00;;;;;;5093621;28;20500;-63
2022/10/27 11:56:02;;;;;;;5.57;4.10;;;22.80;1.00;;;;;;5092479;28;20530;-62
2022/10/27 11:59:25;;;;;;;7.67;4.63;;;23.20;1.00;;;;;;5090908;28;20432;-63
2022/10/27 12:01:57;;;;;;;6.27;4.07;;;23.40;1.00;;;;;;5029113;28;20814;-59
2022/10/27 12:04:50;;;;;;;6.73;3.97;;;23.40;1.00;;;;;;5083312;28;20463;-60
2022/10/27 12:07:15;;;;;;;5.20;3.70;;;23.40;1.00;;;;;;5091317;28;20868;-61
2022/10/27 12:10:12;;;;;;;3.83;3.00;;;23.50;1.00;;;;;;5089178;28;20482;-59
2022/10/27 12:12:42;;;;;;;3.30;2.80;;;23.40;1.00;;;;;;5090525;28;20171;-59
2022/10/27 12:15:30;;;;;;;2.70;2.50;;;23.30;1.00;;;;;;5090243;28;20937;-59
2022/10/27 12:18:10;;;;;;;6.30;3.20;;;23.20;1.00;;;;;;5089921;28;20438;-59
2022/10/27 12:20:46;;;;;;;3.40;2.50;;;23.20;1.00;;;;;;5090740;28;20799;-60
2022/10/27 12:23:30;;;;;;;5.50;2.57;;;23.50;1.00;;;;;;5089207;28;20530;-60
2022/10/27 12:26:13;;;;;;;5.93;3.20;;;23.50;1.00;;;;;;5089791;28;20906;-60
2022/10/27 12:28:39;;;;;;;4.87;3.30;;;23.40;1.00;;;;;;5090632;28;20453;-60
2022/10/27 12:31:10;;;;;;;5.33;3.40;;;23.50;1.00;;;;;;5075396;28;20533;-61
2022/10/27 12:33:52;;;;;;;5.10;3.50;;;23.30;1.00;;;;;;5087974;28;20526;-60
2022/10/27 12:36:34;;;;;;;6.07;3.80;;;23.30;1.00;;;;;;5088428;28;21010;-62
2022/10/27 12:39:03;;;;;;;3.57;3.23;;;23.20;1.00;;;;;;5087421;28;20448;-61
2022/10/27 12:41:36;;;;;;;3.97;3.33;;;23.20;1.00;;;;;;5080105;28;20451;-60
2022/10/27 12:44:21;;;;;;;4.83;2.77;;;23.10;1.00;;;;;;5089397;28;20462;-61
2022/10/27 12:46:49;;;;;;;3.27;2.27;;;22.90;1.00;;;;;;5089618;28;20435;-59
2022/10/27 12:49:50;;;;;;;3.97;3.07;;;22.90;1.00;;;;;;5089695;28;20493;-60
2022/10/27 12:52:20;;;;;;;4.33;2.80;;;22.90;1.00;;;;;;5065748;28;20458;-62
2022/10/27 12:54:55;;;;;;;4.80;2.30;;;22.90;1.00;;;;;;5089531;28;20526;-60
2022/10/27 12:57:27;;;;;;;3.17;2.20;;;22.90;1.00;;;;;;5089866;28;20431;-60
2022/10/27 13:00:07;;;;;;;3.10;2.33;;;22.80;1.00;;;;;;5089045;28;20408;-60
2022/10/27 13:02:38;;;;;;;4.13;2.10;;;22.80;1.00;;;;;;5080664;28;20423;-60